Time;durP1;ratioP1;P1;durP2;ratioP2;P2;SDS_P1;SDS_P2;PMS_P1;PMS_P2;Temp;Humidity;BMP_temperature;BMP_pressure;BME280_temperature;BME280_humidity;BME280_pressure;Samples;Min_cycle;Max_cycle;Signal;HPM_P1;HPM_P2
2022/07/05 00:01:13;;;;;;;11.13;10.30;;;15.00;99.90;;;;;;5093166;28;20828;-66
2022/07/05 00:03:40;;;;;;;13.33;11.80;;;15.00;99.90;;;;;;5093678;28;20463;-67
2022/07/05 00:06:08;;;;;;;14.27;11.20;;;15.10;99.90;;;;;;5097495;28;21019;-66
2022/07/05 00:08:35;;;;;;;11.87;11.07;;;15.00;99.90;;;;;;5087266;28;20462;-67
2022/07/05 00:11:02;;;;;;;11.57;10.77;;;15.10;99.90;;;;;;5089402;28;21031;-66
2022/07/05 00:13:29;;;;;;;11.67;10.83;;;15.00;99.90;;;;;;5095493;28;20465;-67
2022/07/05 00:15:56;;;;;;;12.43;11.63;;;14.90;99.90;;;;;;5087622;28;20450;-66
2022/07/05 00:18:25;;;;;;;12.70;11.70;;;14.90;99.90;;;;;;5087171;28;20523;-67
2022/07/05 00:20:52;;;;;;;12.87;11.70;;;14.80;99.90;;;;;;5096526;28;20850;-66
2022/07/05 00:23:18;;;;;;;13.53;11.80;;;14.70;99.90;;;;;;5095269;28;20472;-66
2022/07/05 00:25:46;;;;;;;12.70;11.70;;;14.60;99.90;;;;;;5098066;28;20457;-66
2022/07/05 00:28:13;;;;;;;12.73;11.73;;;14.50;99.90;;;;;;5096037;28;20861;-67
2022/07/05 00:30:41;;;;;;;12.60;11.80;;;14.40;99.90;;;;;;5096731;28;20461;-66
2022/07/05 00:33:08;;;;;;;13.17;12.27;;;14.50;99.90;;;;;;5089697;28;20486;-66
2022/07/05 00:35:36;;;;;;;13.30;12.30;;;14.40;99.90;;;;;;5093804;28;20462;-66
2022/07/05 00:38:04;;;;;;;12.50;11.23;;;14.40;99.90;;;;;;5091679;28;20500;-66
2022/07/05 00:40:31;;;;;;;13.07;11.63;;;14.30;99.90;;;;;;5093677;28;20472;-66
2022/07/05 00:42:58;;;;;;;12.97;11.50;;;14.40;99.90;;;;;;5091955;28;20467;-66
2022/07/05 00:45:25;;;;;;;13.03;11.87;;;14.40;99.90;;;;;;5092486;28;20456;-66
2022/07/05 00:47:53;;;;;;;13.20;12.17;;;14.40;99.90;;;;;;5088510;28;20491;-66
2022/07/05 00:50:20;;;;;;;13.00;11.90;;;14.40;99.90;;;;;;5091168;28;20831;-66
2022/07/05 00:52:53;;;;;;;12.73;11.63;;;14.40;99.90;;;;;;5100077;28;20854;-66
2022/07/05 00:55:20;;;;;;;13.63;12.60;;;14.30;99.90;;;;;;5091781;28;20722;-67
2022/07/05 00:57:47;;;;;;;14.10;12.90;;;14.30;99.90;;;;;;5094762;28;20528;-66
2022/07/05 01:00:15;;;;;;;14.20;13.07;;;14.20;99.90;;;;;;5091983;28;20468;-65
2022/07/05 01:02:42;;;;;;;13.53;12.30;;;14.20;99.90;;;;;;5090295;28;20472;-66
2022/07/05 01:05:10;;;;;;;13.93;12.73;;;14.10;99.90;;;;;;5095490;28;20461;-66
2022/07/05 01:07:37;;;;;;;14.50;13.43;;;14.10;99.90;;;;;;5094047;28;20771;-66
2022/07/05 01:10:06;;;;;;;12.77;11.77;;;14.10;99.90;;;;;;5098776;28;20460;-66
2022/07/05 01:12:33;;;;;;;14.80;13.33;;;14.00;99.90;;;;;;5089648;28;20523;-66
2022/07/05 01:15:02;;;;;;;14.87;13.60;;;14.00;99.90;;;;;;5095505;28;20462;-66
2022/07/05 01:17:29;;;;;;;15.53;14.03;;;14.00;99.90;;;;;;5100475;28;20471;-66
2022/07/05 01:19:58;;;;;;;13.63;12.53;;;14.00;99.90;;;;;;5091444;28;20466;-66
2022/07/05 01:22:28;;;;;;;14.70;13.43;;;13.90;99.90;;;;;;5098129;28;20491;-67
2022/07/05 01:24:56;;;;;;;14.53;13.30;;;13.90;99.90;;;;;;5092681;28;20552;-66
2022/07/05 01:27:23;;;;;;;16.20;14.50;;;13.80;99.90;;;;;;5096082;28;20492;-66
2022/07/05 01:29:50;;;;;;;15.80;14.10;;;13.90;99.90;;;;;;5095716;28;20833;-66
2022/07/05 01:32:17;;;;;;;14.40;12.67;;;13.90;99.90;;;;;;5101426;28;20494;-66
2022/07/05 01:34:44;;;;;;;14.33;13.13;;;14.00;99.90;;;;;;5098822;28;20865;-65
2022/07/05 01:37:11;;;;;;;15.63;14.20;;;13.90;99.90;;;;;;5093378;28;20453;-66
2022/07/05 01:39:39;;;;;;;16.13;14.77;;;14.00;99.90;;;;;;5096626;28;20462;-66
2022/07/05 01:42:07;;;;;;;16.00;14.47;;;14.10;99.90;;;;;;5100953;28;20868;-67
2022/07/05 01:44:35;;;;;;;14.47;13.17;;;14.10;99.90;;;;;;5095252;28;20469;-66
2022/07/05 01:47:06;;;;;;;14.20;12.90;;;14.10;99.90;;;;;;5103130;28;20453;-66
2022/07/05 01:49:40;;;;;;;16.93;13.20;;;14.00;99.90;;;;;;5095648;28;20967;-66
2022/07/05 01:52:10;;;;;;;14.17;13.07;;;14.00;99.90;;;;;;5096669;28;21022;-66
2022/07/05 01:54:38;;;;;;;20.40;15.37;;;13.90;99.90;;;;;;5097093;28;20458;-65
2022/07/05 01:57:07;;;;;;;15.83;14.43;;;13.80;99.90;;;;;;5094583;28;20462;-66
2022/07/05 01:59:36;;;;;;;15.17;13.87;;;13.90;99.90;;;;;;5097416;28;20472;-66
2022/07/05 02:02:05;;;;;;;14.83;13.73;;;13.90;99.90;;;;;;5094604;28;20469;-66
2022/07/05 02:04:33;;;;;;;15.43;13.80;;;13.90;99.90;;;;;;5104761;28;20809;-66
2022/07/05 02:07:00;;;;;;;16.20;14.90;;;13.90;99.90;;;;;;5094871;28;20457;-66
2022/07/05 02:09:27;;;;;;;14.83;13.53;;;13.90;99.90;;;;;;5100579;28;20458;-66
2022/07/05 02:11:55;;;;;;;14.60;13.20;;;13.90;99.90;;;;;;5102327;28;20507;-66
2022/07/05 02:14:24;;;;;;;16.87;13.10;;;13.80;99.90;;;;;;5101706;28;20462;-66
2022/07/05 02:16:51;;;;;;;16.23;14.83;;;13.70;99.90;;;;;;5099459;28;20465;-66
2022/07/05 02:19:18;;;;;;;15.53;14.23;;;13.70;99.90;;;;;;5092622;28;20881;-66
2022/07/05 02:21:46;;;;;;;15.60;14.07;;;13.80;99.90;;;;;;5098318;28;20469;-67
2022/07/05 02:24:13;;;;;;;16.53;14.60;;;13.90;99.90;;;;;;5090872;28;20461;-66
2022/07/05 02:26:40;;;;;;;13.67;12.47;;;14.00;99.90;;;;;;5098937;28;20481;-66
2022/07/05 02:29:07;;;;;;;17.10;14.43;;;14.10;99.90;;;;;;5097640;28;20845;-66
2022/07/05 02:31:35;;;;;;;17.40;15.70;;;14.00;99.90;;;;;;5099322;28;20453;-66
2022/07/05 02:34:03;;;;;;;15.23;13.53;;;14.10;99.90;;;;;;5094244;28;20462;-66
2022/07/05 02:36:30;;;;;;;15.47;14.07;;;14.20;99.90;;;;;;5092815;28;20483;-65
2022/07/05 02:38:57;;;;;;;15.43;14.03;;;14.20;99.90;;;;;;5102098;28;20502;-66
2022/07/05 02:41:25;;;;;;;15.33;13.83;;;14.20;99.90;;;;;;5097384;28;20463;-66
2022/07/05 02:43:53;;;;;;;14.03;12.87;;;14.30;99.90;;;;;;5098015;28;20816;-66
2022/07/05 02:46:20;;;;;;;15.23;13.83;;;14.30;99.90;;;;;;5098002;28;20461;-66
2022/07/05 02:48:48;;;;;;;15.80;14.30;;;14.30;99.90;;;;;;5096500;28;20551;-66
2022/07/05 02:51:16;;;;;;;19.40;14.67;;;14.30;99.90;;;;;;5093330;28;20823;-66
2022/07/05 02:53:43;;;;;;;15.70;14.27;;;14.40;99.90;;;;;;5089299;28;20884;-66
2022/07/05 02:56:10;;;;;;;15.90;14.20;;;14.40;99.90;;;;;;5089884;28;20458;-66
2022/07/05 02:58:38;;;;;;;14.43;13.23;;;14.50;99.90;;;;;;5097955;28;20461;-67
2022/07/05 03:01:04;;;;;;;14.73;13.43;;;14.60;99.90;;;;;;5094553;28;20457;-66
2022/07/05 03:03:32;;;;;;;15.50;13.83;;;14.50;99.90;;;;;;5093648;28;20960;-66
2022/07/05 03:06:00;;;;;;;15.47;13.87;;;14.50;99.90;;;;;;5092053;28;20488;-66
2022/07/05 03:08:29;;;;;;;15.67;14.17;;;14.50;99.90;;;;;;5096427;28;21186;-66
2022/07/05 03:10:56;;;;;;;13.73;12.67;;;14.50;99.90;;;;;;5094129;28;20469;-66
2022/07/05 03:13:24;;;;;;;13.47;12.10;;;14.50;99.90;;;;;;5096417;28;20882;-66
2022/07/05 03:15:51;;;;;;;14.33;12.97;;;14.40;99.90;;;;;;5094530;28;20471;-65
2022/07/05 03:18:18;;;;;;;15.67;14.27;;;14.30;99.90;;;;;;5100306;28;20464;-67
2022/07/05 03:20:47;;;;;;;15.37;13.87;;;14.30;99.90;;;;;;5093155;28;20457;-66
2022/07/05 03:23:15;;;;;;;15.27;14.00;;;14.40;99.90;;;;;;5096531;28;20469;-66
2022/07/05 03:25:42;;;;;;;19.83;16.77;;;14.40;99.90;;;;;;5094287;28;20465;-66
2022/07/05 03:28:09;;;;;;;15.87;14.30;;;14.40;99.90;;;;;;5099351;28;20500;-65
2022/07/05 03:30:36;;;;;;;17.00;15.30;;;14.30;99.90;;;;;;5095326;28;20833;-67
2022/07/05 03:33:03;;;;;;;18.30;16.50;;;14.30;99.90;;;;;;5087987;28;20485;-65
2022/07/05 03:35:30;;;;;;;16.53;15.00;;;14.20;99.90;;;;;;5097664;28;20454;-65
2022/07/05 03:37:57;;;;;;;15.83;14.37;;;14.20;99.90;;;;;;5089660;28;20454;-66
2022/07/05 03:40:27;;;;;;;16.90;15.40;;;14.10;99.90;;;;;;5092948;28;20458;-66
2022/07/05 03:42:53;;;;;;;19.20;16.10;;;13.90;99.90;;;;;;5096024;28;20464;-67
2022/07/05 03:45:20;;;;;;;18.17;16.50;;;13.90;99.90;;;;;;5094098;28;20874;-67
2022/07/05 03:47:48;;;;;;;17.60;15.63;;;13.80;99.90;;;;;;5097486;28;20820;-66
2022/07/05 03:50:15;;;;;;;16.93;15.33;;;13.90;99.90;;;;;;5097474;28;20460;-66
2022/07/05 03:52:44;;;;;;;17.57;16.20;;;13.90;99.90;;;;;;5090674;28;20482;-66
2022/07/05 03:55:10;;;;;;;17.10;15.63;;;13.80;99.90;;;;;;5088811;28;20466;-66
2022/07/05 03:57:38;;;;;;;19.53;17.87;;;13.80;99.90;;;;;;5095268;28;20462;-66
2022/07/05 04:00:06;;;;;;;18.63;16.80;;;13.80;99.90;;;;;;5096916;28;20473;-66
2022/07/05 04:02:33;;;;;;;17.00;15.50;;;13.70;99.90;;;;;;5079569;27;20462;-67
2022/07/05 04:05:00;;;;;;;20.47;16.90;;;13.60;99.90;;;;;;5070206;28;20458;-67
2022/07/05 04:07:27;;;;;;;19.77;16.30;;;13.60;99.90;;;;;;5065018;28;20854;-67
2022/07/05 04:09:54;;;;;;;18.60;16.83;;;13.60;99.90;;;;;;5067597;28;21196;-66
2022/07/05 04:12:21;;;;;;;20.47;17.07;;;13.70;99.90;;;;;;5067474;28;20792;-66
2022/07/05 04:14:49;;;;;;;17.93;16.23;;;13.70;99.90;;;;;;5067752;28;20965;-67
2022/07/05 04:17:16;;;;;;;17.70;16.00;;;13.70;99.90;;;;;;5068487;28;20466;-67
2022/07/05 04:19:43;;;;;;;16.27;14.87;;;13.60;99.90;;;;;;5068419;28;20461;-66
2022/07/05 04:22:10;;;;;;;17.27;14.70;;;13.70;99.90;;;;;;5069692;28;20471;-66
2022/07/05 04:27:18;;;;;;;17.40;15.90;;;13.70;99.90;;;;;;5069396;28;21125;-69
2022/07/05 04:29:45;;;;;;;16.50;15.03;;;13.80;99.90;;;;;;5069100;28;22517;-69
2022/07/05 04:32:13;;;;;;;16.13;14.53;;;13.70;99.90;;;;;;5067394;28;21054;-67
2022/07/05 04:34:40;;;;;;;15.53;14.20;;;13.70;99.90;;;;;;5068264;28;20477;-67
2022/07/05 04:37:07;;;;;;;16.07;14.43;;;13.70;99.90;;;;;;5069068;28;20458;-70
2022/07/05 04:39:34;;;;;;;17.53;15.93;;;13.60;99.90;;;;;;5068241;28;21386;-69
2022/07/05 04:42:01;;;;;;;17.47;15.87;;;13.60;99.90;;;;;;5068158;28;20466;-69
2022/07/05 04:44:27;;;;;;;17.40;15.67;;;13.60;99.90;;;;;;5068870;28;21007;-69
2022/07/05 04:46:54;;;;;;;18.40;16.80;;;13.60;99.90;;;;;;5068913;28;20457;-68
2022/07/05 04:49:22;;;;;;;20.70;17.33;;;13.70;99.90;;;;;;5069152;28;20466;-69
2022/07/05 04:51:49;;;;;;;21.50;16.90;;;13.70;99.90;;;;;;5068763;28;20453;-69
2022/07/05 04:54:16;;;;;;;20.07;17.87;;;13.70;99.90;;;;;;5068632;28;20486;-69
2022/07/05 04:56:43;;;;;;;19.93;17.50;;;13.70;99.90;;;;;;5066416;28;20960;-68
2022/07/05 04:59:09;;;;;;;18.97;17.13;;;13.80;99.90;;;;;;5067434;28;20457;-69
2022/07/05 05:01:36;;;;;;;19.63;17.63;;;13.80;99.90;;;;;;5067976;28;20469;-68
2022/07/05 05:04:03;;;;;;;24.17;16.97;;;13.80;99.90;;;;;;5068236;28;20477;-68
2022/07/05 05:06:32;;;;;;;19.93;17.97;;;13.90;99.90;;;;;;5067429;28;20863;-69
2022/07/05 05:08:59;;;;;;;23.47;18.50;;;13.90;99.90;;;;;;5068025;28;20465;-69
2022/07/05 05:11:25;;;;;;;18.07;16.37;;;14.00;99.90;;;;;;5066913;28;20470;-69
2022/07/05 05:13:52;;;;;;;22.37;18.33;;;14.00;99.90;;;;;;5068689;28;21085;-69
2022/07/05 05:16:19;;;;;;;22.23;17.83;;;14.10;99.90;;;;;;5067738;28;20453;-68
2022/07/05 05:18:46;;;;;;;19.60;17.60;;;14.30;99.90;;;;;;5066905;28;20454;-69
2022/07/05 05:21:13;;;;;;;28.30;17.60;;;14.40;99.90;;;;;;5067625;28;20462;-66
2022/07/05 05:23:41;;;;;;;36.00;18.60;;;14.50;99.90;;;;;;5068115;28;20995;-67
2022/07/05 05:26:09;;;;;;;19.63;16.57;;;14.70;99.90;;;;;;5068767;28;21011;-66
2022/07/05 05:28:37;;;;;;;18.57;16.60;;;14.80;99.90;;;;;;5068474;28;20481;-67
2022/07/05 05:31:03;;;;;;;23.97;17.00;;;14.90;99.90;;;;;;5067952;28;20474;-66
2022/07/05 05:33:30;;;;;;;20.20;18.00;;;15.00;99.90;;;;;;5068314;28;20496;-67
2022/07/05 05:35:57;;;;;;;25.53;17.10;;;15.20;99.90;;;;;;5068877;28;20919;-66
2022/07/05 05:38:24;;;;;;;22.57;17.37;;;15.20;99.90;;;;;;5068206;28;20469;-66
2022/07/05 05:40:52;;;;;;;18.67;16.83;;;15.20;99.90;;;;;;5067893;28;20483;-67
2022/07/05 05:43:19;;;;;;;19.57;16.93;;;15.20;99.90;;;;;;5068321;28;20453;-66
2022/07/05 05:45:46;;;;;;;24.10;18.20;;;15.30;99.90;;;;;;5067847;28;20476;-66
2022/07/05 05:48:13;;;;;;;19.63;17.50;;;15.30;99.90;;;;;;5067727;28;20556;-67
2022/07/05 05:50:40;;;;;;;19.67;17.73;;;15.50;99.90;;;;;;5068635;28;20458;-66
2022/07/05 05:53:07;;;;;;;18.17;16.27;;;15.60;99.90;;;;;;5069429;28;20509;-67
2022/07/05 05:55:35;;;;;;;17.87;16.37;;;15.70;99.90;;;;;;5085639;28;20504;-67
2022/07/05 05:58:14;;;;;;;21.30;19.10;;;15.80;99.90;;;;;;5095252;28;21246;-66
2022/07/05 06:00:41;;;;;;;18.37;16.57;;;15.80;99.90;;;;;;5094821;28;20464;-67
2022/07/05 06:03:08;;;;;;;19.07;17.57;;;15.90;99.90;;;;;;5069322;28;20885;-67
2022/07/05 06:05:35;;;;;;;18.37;17.07;;;16.10;99.90;;;;;;5070656;28;20473;-68
2022/07/05 06:08:02;;;;;;;19.43;17.83;;;16.20;99.90;;;;;;5070333;28;20462;-67
2022/07/05 06:10:30;;;;;;;21.70;19.37;;;16.30;99.90;;;;;;5068614;28;20468;-67
2022/07/05 06:12:59;;;;;;;28.63;17.73;;;16.50;99.90;;;;;;5069277;28;21136;-67
2022/07/05 06:15:28;;;;;;;19.57;17.43;;;16.50;99.90;;;;;;5069904;28;20836;-67
2022/07/05 06:17:55;;;;;;;21.07;19.00;;;16.60;99.90;;;;;;5068921;28;20472;-67
2022/07/05 06:20:24;;;;;;;18.77;17.37;;;16.70;99.90;;;;;;5069743;28;20635;-67
2022/07/05 06:22:53;;;;;;;19.03;17.27;;;16.90;99.90;;;;;;5070285;28;20450;-66
2022/07/05 06:25:20;;;;;;;19.17;17.70;;;16.90;99.90;;;;;;5071780;28;20871;-67
2022/07/05 06:27:49;;;;;;;19.20;17.80;;;17.10;99.90;;;;;;5069922;28;20542;-67
2022/07/05 06:30:17;;;;;;;20.70;18.73;;;17.10;99.90;;;;;;5070975;28;20462;-67
2022/07/05 06:32:47;;;;;;;18.37;16.97;;;17.20;99.90;;;;;;5070094;28;22557;-67
2022/07/05 06:35:14;;;;;;;17.83;16.63;;;17.40;99.90;;;;;;5070833;28;20492;-67
2022/07/05 06:37:42;;;;;;;19.83;17.77;;;17.50;99.90;;;;;;5069662;28;20508;-67
2022/07/05 06:40:11;;;;;;;18.13;16.13;;;17.60;99.90;;;;;;5070484;28;20469;-67
2022/07/05 06:42:38;;;;;;;17.63;15.93;;;17.70;99.90;;;;;;5069520;28;20454;-67
2022/07/05 06:45:06;;;;;;;18.77;17.43;;;17.70;99.90;;;;;;5070257;28;20458;-69
2022/07/05 06:47:34;;;;;;;18.10;16.50;;;17.90;99.90;;;;;;5070634;28;20480;-67
2022/07/05 06:50:03;;;;;;;16.80;15.80;;;17.90;99.90;;;;;;5070500;28;20556;-66
2022/07/05 06:52:31;;;;;;;17.97;16.27;;;18.00;99.90;;;;;;5070901;28;20481;-68
2022/07/05 06:54:58;;;;;;;17.10;16.07;;;18.20;99.90;;;;;;5070517;28;20877;-68
2022/07/05 06:57:25;;;;;;;17.90;16.73;;;18.20;99.90;;;;;;5080713;28;20465;-67
2022/07/05 06:59:52;;;;;;;17.97;16.43;;;18.30;99.90;;;;;;5096845;28;20959;-67
2022/07/05 07:02:19;;;;;;;18.50;17.10;;;18.40;99.90;;;;;;5097072;28;20472;-66
2022/07/05 07:04:46;;;;;;;17.93;16.50;;;18.60;99.90;;;;;;5088423;28;22744;-67
2022/07/05 07:09:57;;;;;;;18.00;16.80;;;18.70;99.90;;;;;;5068191;28;21221;-67
2022/07/05 07:12:25;;;;;;;17.03;15.83;;;18.80;99.90;;;;;;5069535;28;20470;-67
2022/07/05 07:14:52;;;;;;;18.13;16.77;;;19.00;99.90;;;;;;5070143;28;20481;-68
2022/07/05 07:17:19;;;;;;;19.13;17.60;;;19.10;99.90;;;;;;5069101;28;21019;-67
2022/07/05 07:19:46;;;;;;;19.90;18.17;;;19.20;99.90;;;;;;5067851;28;20469;-68
2022/07/05 07:22:14;;;;;;;19.13;17.50;;;19.30;99.90;;;;;;5069479;28;20532;-67
2022/07/05 07:24:41;;;;;;;18.53;17.20;;;19.50;99.90;;;;;;5068996;28;20490;-68
2022/07/05 07:27:08;;;;;;;19.60;17.73;;;19.60;99.90;;;;;;5069332;28;20477;-67
2022/07/05 07:29:36;;;;;;;19.73;17.93;;;19.70;99.90;;;;;;5069496;28;20492;-67
2022/07/05 07:32:05;;;;;;;19.13;17.60;;;19.90;99.90;;;;;;5069208;28;20531;-67
2022/07/05 07:34:32;;;;;;;19.43;17.90;;;20.00;99.90;;;;;;5069004;28;20497;-67
2022/07/05 07:36:59;;;;;;;19.67;17.90;;;20.00;99.90;;;;;;5068296;28;20460;-67
2022/07/05 07:39:28;;;;;;;18.77;17.13;;;20.10;99.90;;;;;;5069036;28;20469;-67
2022/07/05 07:41:55;;;;;;;19.37;17.93;;;20.40;99.90;;;;;;5069267;28;20494;-67
2022/07/05 07:44:22;;;;;;;18.47;16.97;;;20.60;99.90;;;;;;5078169;28;20939;-68
2022/07/05 07:46:50;;;;;;;17.83;16.40;;;20.90;99.90;;;;;;5091837;28;20481;-67
2022/07/05 07:49:18;;;;;;;17.50;16.40;;;20.80;99.90;;;;;;5095290;28;20454;-67
2022/07/05 07:51:45;;;;;;;18.37;17.17;;;20.90;99.90;;;;;;5090815;28;20470;-68
2022/07/05 07:54:12;;;;;;;18.20;16.80;;;21.10;99.90;;;;;;5068457;28;20490;-67
2022/07/05 07:56:41;;;;;;;17.20;16.20;;;21.30;99.90;;;;;;5078116;28;20457;-67
2022/07/05 07:59:08;;;;;;;19.27;17.47;;;21.40;99.90;;;;;;5094593;28;20990;-67
2022/07/05 08:01:36;;;;;;;18.33;17.13;;;21.30;99.90;;;;;;5093108;28;20852;-68
2022/07/05 08:04:02;;;;;;;18.00;16.53;;;21.60;99.90;;;;;;5072935;28;20478;-67
2022/07/05 08:06:29;;;;;;;17.17;16.13;;;21.60;99.90;;;;;;5067525;28;20450;-67
2022/07/05 08:08:57;;;;;;;18.00;16.77;;;21.70;99.90;;;;;;5066406;28;20796;-68
2022/07/05 08:11:23;;;;;;;16.77;15.50;;;22.40;99.90;;;;;;5067109;28;20469;-68
2022/07/05 08:13:51;;;;;;;16.57;15.60;;;23.20;99.90;;;;;;5067458;28;20492;-67
2022/07/05 08:16:19;;;;;;;17.60;16.50;;;24.30;99.90;;;;;;5065689;28;20466;-68
2022/07/05 08:21:37;;;;;;;16.90;16.00;;;25.30;97.30;;;;;;5067850;28;20518;-68
2022/07/05 08:24:06;;;;;;;17.00;15.90;;;25.60;95.70;;;;;;5067279;28;20573;-68
2022/07/05 08:26:36;;;;;;;18.10;16.33;;;25.50;95.40;;;;;;5066096;28;20493;-67
2022/07/05 08:29:05;;;;;;;17.07;15.40;;;26.20;94.00;;;;;;5067407;28;21403;-68
2022/07/05 08:31:35;;;;;;;16.50;15.57;;;26.40;91.80;;;;;;5068026;28;20909;-68
2022/07/05 08:34:03;;;;;;;16.37;15.27;;;25.70;91.30;;;;;;5068300;28;20867;-68
2022/07/05 08:36:30;;;;;;;16.63;15.63;;;25.50;90.10;;;;;;5068070;28;20469;-68
2022/07/05 08:38:57;;;;;;;16.07;14.97;;;25.60;91.30;;;;;;5068094;28;20473;-68
2022/07/05 08:41:24;;;;;;;16.97;15.97;;;25.80;91.20;;;;;;5067945;28;20602;-67
2022/07/05 08:43:52;;;;;;;16.10;15.10;;;25.70;90.00;;;;;;5065255;28;20980;-68
2022/07/05 08:46:21;;;;;;;16.20;15.23;;;25.70;85.90;;;;;;5067535;28;20472;-68
2022/07/05 08:48:49;;;;;;;17.33;16.13;;;25.20;90.30;;;;;;5067594;28;20456;-67
2022/07/05 08:51:20;;;;;;;16.37;15.37;;;24.90;90.60;;;;;;5066744;28;20468;-67
2022/07/05 08:53:48;;;;;;;16.37;15.50;;;25.40;88.90;;;;;;5067571;28;20493;-68
2022/07/05 08:56:16;;;;;;;17.70;16.50;;;25.30;87.80;;;;;;5067332;28;20457;-67
2022/07/05 08:58:43;;;;;;;16.50;15.70;;;25.50;86.30;;;;;;5053345;28;20498;-67
2022/07/05 09:01:11;;;;;;;16.17;15.30;;;26.10;83.10;;;;;;5063262;28;22480;-68
2022/07/05 09:03:43;;;;;;;16.70;15.70;;;27.20;82.20;;;;;;5058557;28;20480;-67
2022/07/05 09:06:12;;;;;;;17.30;16.20;;;27.30;80.10;;;;;;5065740;28;20665;-67
2022/07/05 09:08:40;;;;;;;17.33;16.23;;;27.70;79.00;;;;;;5090867;28;20938;-67
2022/07/05 09:11:09;;;;;;;16.33;15.53;;;27.30;77.90;;;;;;5068907;28;20507;-68
2022/07/05 09:13:37;;;;;;;16.97;15.90;;;26.50;80.90;;;;;;5062160;28;20467;-66
2022/07/05 09:16:05;;;;;;;16.63;15.53;;;26.20;81.30;;;;;;5059658;28;20497;-66
2022/07/05 09:18:45;;;;;;;17.10;16.10;;;26.50;80.40;;;;;;5058780;28;20968;-68
2022/07/05 09:21:16;;;;;;;16.80;15.90;;;26.60;78.40;;;;;;5064052;28;20696;-68
2022/07/05 09:23:43;;;;;;;17.10;16.03;;;25.70;79.80;;;;;;5066271;28;21079;-67
2022/07/05 09:26:10;;;;;;;18.07;16.87;;;24.70;83.10;;;;;;5060887;28;20454;-67
2022/07/05 09:28:37;;;;;;;17.10;15.80;;;24.40;83.90;;;;;;5061390;28;20478;-67
2022/07/05 09:31:05;;;;;;;16.40;15.30;;;25.00;84.70;;;;;;5062906;28;22384;-67
2022/07/05 09:33:32;;;;;;;16.20;15.20;;;25.10;83.90;;;;;;5065857;28;20458;-68
2022/07/05 09:36:01;;;;;;;15.90;15.10;;;25.00;81.20;;;;;;5078549;28;20590;-67
2022/07/05 09:38:28;;;;;;;17.30;16.00;;;25.80;79.50;;;;;;5069149;28;20629;-67
2022/07/05 09:40:57;;;;;;;16.73;15.03;;;27.00;75.70;;;;;;5067308;28;20480;-68
2022/07/05 09:43:25;;;;;;;16.43;15.53;;;29.10;73.10;;;;;;5097557;28;20445;-67
2022/07/05 09:45:58;;;;;;;16.30;15.50;;;29.50;68.70;;;;;;5067149;28;20454;-68
2022/07/05 09:48:25;;;;;;;16.97;16.03;;;29.10;68.60;;;;;;5065254;28;20852;-68
2022/07/05 09:50:53;;;;;;;16.30;15.43;;;27.70;67.60;;;;;;5088842;28;20464;-67
2022/07/05 09:53:21;;;;;;;17.00;16.00;;;25.90;70.70;;;;;;5084024;28;20790;-67
2022/07/05 09:56:04;;;;;;;16.17;15.37;;;25.10;76.00;;;;;;5071475;28;20496;-67
2022/07/05 09:58:32;;;;;;;16.00;15.20;;;25.30;77.20;;;;;;5066137;28;20458;-68
2022/07/05 10:00:58;;;;;;;16.20;15.40;;;26.50;75.00;;;;;;5066589;28;20449;-67
2022/07/05 10:03:25;;;;;;;17.00;15.50;;;27.60;70.50;;;;;;5066184;28;20457;-68
2022/07/05 10:05:53;;;;;;;15.80;14.93;;;27.40;68.00;;;;;;5064969;28;20586;-68
2022/07/05 10:08:22;;;;;;;15.73;14.93;;;26.70;67.50;;;;;;5064775;28;20605;-67
2022/07/05 10:10:51;;;;;;;15.87;14.97;;;26.00;67.80;;;;;;5065504;28;20469;-69
2022/07/05 10:13:18;;;;;;;15.00;14.30;;;25.70;70.90;;;;;;5063592;28;20473;-67
2022/07/05 10:15:46;;;;;;;16.63;15.30;;;26.50;70.30;;;;;;5065298;28;20489;-68
2022/07/05 10:18:18;;;;;;;16.43;15.53;;;26.90;66.90;;;;;;5064003;28;20484;-67
2022/07/05 10:20:46;;;;;;;15.97;15.00;;;27.40;64.50;;;;;;5066677;28;22438;-67
2022/07/05 10:23:15;;;;;;;15.50;14.60;;;26.80;66.50;;;;;;5065386;28;20462;-68
2022/07/05 10:25:47;;;;;;;15.97;15.27;;;26.60;69.10;;;;;;5066660;28;20473;-67
2022/07/05 10:28:15;;;;;;;16.27;15.47;;;27.30;66.50;;;;;;5065414;28;20550;-68
2022/07/05 10:30:44;;;;;;;20.30;18.73;;;28.40;64.10;;;;;;5065622;28;20471;-68
2022/07/05 10:33:14;;;;;;;16.90;16.00;;;29.20;62.10;;;;;;5066705;28;20469;-68
2022/07/05 10:35:44;;;;;;;15.63;14.93;;;29.60;58.20;;;;;;5066039;28;21182;-68
2022/07/05 10:38:12;;;;;;;15.90;14.80;;;30.10;55.50;;;;;;5066524;28;20472;-68
2022/07/05 10:40:41;;;;;;;15.57;14.73;;;29.40;54.00;;;;;;5063912;28;20481;-68
2022/07/05 10:43:11;;;;;;;15.80;15.00;;;29.10;53.00;;;;;;5065498;28;21185;-68
2022/07/05 10:45:40;;;;;;;15.60;14.90;;;28.80;54.30;;;;;;5065409;28;20466;-69
2022/07/05 10:48:15;;;;;;;15.43;14.63;;;28.90;53.40;;;;;;5066163;28;20458;-67
2022/07/05 10:50:50;;;;;;;16.07;14.90;;;28.90;54.70;;;;;;5064998;28;21093;-68
2022/07/05 10:53:19;;;;;;;15.77;14.77;;;28.90;54.00;;;;;;5064329;28;21116;-67
2022/07/05 10:55:58;;;;;;;14.93;14.23;;;29.10;53.20;;;;;;5064952;28;21277;-68
2022/07/05 10:58:31;;;;;;;15.87;15.07;;;29.40;54.00;;;;;;5063373;28;20496;-68
2022/07/05 11:01:35;;;;;;;18.30;15.03;;;29.70;52.70;;;;;;5065491;28;20986;-68
2022/07/05 11:04:22;;;;;;;17.90;16.57;;;29.50;51.40;;;;;;5055217;28;20465;-68
2022/07/05 11:06:49;;;;;;;16.37;15.30;;;30.00;51.90;;;;;;5064648;28;20477;-68
2022/07/05 11:09:20;;;;;;;16.63;15.27;;;30.20;52.50;;;;;;5065235;28;20470;-68
2022/07/05 11:12:01;;;;;;;16.30;15.00;;;30.10;52.80;;;;;;5064214;28;20498;-68
2022/07/05 11:14:34;;;;;;;15.57;14.67;;;29.10;52.50;;;;;;5065000;28;20461;-69
2022/07/05 11:17:25;;;;;;;16.77;15.53;;;27.70;54.30;;;;;;5065079;28;20483;-69
2022/07/05 11:20:23;;;;;;;15.70;14.80;;;26.60;56.80;;;;;;5065272;28;20495;-67
2022/07/05 11:23:10;;;;;;;16.80;15.73;;;25.80;58.00;;;;;;5065334;28;20461;-68
2022/07/05 11:25:40;;;;;;;16.53;15.33;;;25.60;59.90;;;;;;5063438;28;20512;-68
2022/07/05 11:28:18;;;;;;;16.60;15.60;;;26.10;59.70;;;;;;5064205;28;20593;-68
2022/07/05 11:30:54;;;;;;;15.60;14.77;;;26.60;58.60;;;;;;5065180;28;20507;-68
2022/07/05 11:33:38;;;;;;;16.03;14.60;;;26.50;59.50;;;;;;5064651;28;21193;-68
2022/07/05 11:36:08;;;;;;;15.50;14.50;;;26.40;59.60;;;;;;5064188;28;20595;-68
2022/07/05 11:38:35;;;;;;;17.07;15.53;;;27.10;58.50;;;;;;5064164;28;20990;-67
2022/07/05 11:41:15;;;;;;;16.03;14.90;;;27.80;58.00;;;;;;5063904;28;20527;-69
2022/07/05 11:43:43;;;;;;;16.33;15.20;;;28.90;57.10;;;;;;5065552;28;20998;-68
2022/07/05 11:46:11;;;;;;;15.97;15.27;;;29.10;54.50;;;;;;5064397;28;20511;-67
2022/07/05 11:48:40;;;;;;;16.10;15.30;;;29.50;52.50;;;;;;5062852;28;20469;-69
2022/07/05 11:51:14;;;;;;;15.83;15.03;;;28.40;52.80;;;;;;5065235;28;20469;-68
2022/07/05 11:53:42;;;;;;;16.37;14.70;;;27.90;54.10;;;;;;5066138;28;20453;-67
2022/07/05 11:56:10;;;;;;;15.33;14.40;;;27.40;55.50;;;;;;5093639;28;20485;-67
2022/07/05 11:58:37;;;;;;;15.37;14.57;;;27.70;55.10;;;;;;5099620;28;20462;-68
2022/07/05 12:01:05;;;;;;;16.23;15.33;;;28.80;53.40;;;;;;5095354;28;20461;-68
2022/07/05 12:03:34;;;;;;;15.10;14.27;;;29.50;53.70;;;;;;5081958;28;20465;-68
2022/07/05 12:06:11;;;;;;;15.63;14.83;;;29.40;54.70;;;;;;5087147;28;20474;-68
2022/07/05 12:08:38;;;;;;;16.67;15.50;;;29.40;55.00;;;;;;5091458;28;20497;-68
2022/07/05 12:13:51;;;;;;;15.47;14.77;;;27.50;56.60;;;;;;5062735;28;20797;-68
2022/07/05 12:16:18;;;;;;;15.43;14.53;;;28.10;56.80;;;;;;5063361;28;20507;-68
2022/07/05 12:18:50;;;;;;;15.60;14.73;;;28.60;56.70;;;;;;5063330;28;20867;-68
2022/07/05 12:21:20;;;;;;;14.13;13.20;;;28.30;56.10;;;;;;5063424;28;21068;-69
2022/07/05 12:23:47;;;;;;;15.37;13.70;;;28.30;54.70;;;;;;5064262;28;21252;-69
2022/07/05 12:26:15;;;;;;;16.60;15.10;;;28.60;54.30;;;;;;5064465;28;20482;-69
2022/07/05 12:28:42;;;;;;;15.50;14.70;;;29.30;52.90;;;;;;5063207;28;20481;-68
2022/07/05 12:31:20;;;;;;;16.40;15.43;;;30.40;52.10;;;;;;5063724;28;20519;-68
2022/07/05 12:33:49;;;;;;;16.03;15.13;;;30.60;50.20;;;;;;5062168;28;20473;-68
2022/07/05 12:36:17;;;;;;;14.97;14.17;;;29.60;51.60;;;;;;5063455;28;20610;-68
2022/07/05 12:38:44;;;;;;;15.20;14.40;;;29.30;51.30;;;;;;5062575;28;20462;-68
2022/07/05 12:41:12;;;;;;;15.67;14.67;;;30.30;50.10;;;;;;5062525;28;20458;-68
2022/07/05 12:43:52;;;;;;;15.67;14.67;;;31.00;48.70;;;;;;5067539;28;20466;-68
2022/07/05 12:46:20;;;;;;;16.20;15.10;;;30.90;49.60;;;;;;5056900;28;20461;-68